sensor_id;sensor_type;location;lat;lon;timestamp;temperature;humidity
6986;DHT22;3533;51.246;6.850;2023-01-04T00:01:16;17.80;42.30
6986;DHT22;3533;51.246;6.850;2023-01-04T00:03:42;17.80;42.30
6986;DHT22;3533;51.246;6.850;2023-01-04T00:06:11;17.80;42.30
6986;DHT22;3533;51.246;6.850;2023-01-04T00:08:37;17.80;42.20
6986;DHT22;3533;51.246;6.850;2023-01-04T00:11:07;17.80;42.20
6986;DHT22;3533;51.246;6.850;2023-01-04T00:13:33;17.80;42.20
6986;DHT22;3533;51.246;6.850;2023-01-04T00:16:04;17.80;42.30
6986;DHT22;3533;51.246;6.850;2023-01-04T00:18:31;17.80;42.30
6986;DHT22;3533;51.246;6.850;2023-01-04T00:21:07;17.80;42.40
6986;DHT22;3533;51.246;6.850;2023-01-04T00:23:34;17.80;42.20
6986;DHT22;3533;51.246;6.850;2023-01-04T00:26:00;17.80;42.30
6986;DHT22;3533;51.246;6.850;2023-01-04T00:28:25;17.80;42.30
6986;DHT22;3533;51.246;6.850;2023-01-04T00:30:51;17.80;42.30
6986;DHT22;3533;51.246;6.850;2023-01-04T00:33:16;17.80;42.30
6986;DHT22;3533;51.246;6.850;2023-01-04T00:35:42;17.80;42.20
6986;DHT22;3533;51.246;6.850;2023-01-04T00:38:08;17.80;42.20
6986;DHT22;3533;51.246;6.850;2023-01-04T00:40:33;17.80;42.20
6986;DHT22;3533;51.246;6.850;2023-01-04T00:42:59;17.80;42.30
6986;DHT22;3533;51.246;6.850;2023-01-04T00:45:24;17.80;42.20
6986;DHT22;3533;51.246;6.850;2023-01-04T00:47:50;17.80;42.20
6986;DHT22;3533;51.246;6.850;2023-01-04T00:50:15;17.80;42.20
6986;DHT22;3533;51.246;6.850;2023-01-04T00:52:41;17.80;42.30
6986;DHT22;3533;51.246;6.850;2023-01-04T00:55:07;17.80;42.20
6986;DHT22;3533;51.246;6.850;2023-01-04T00:57:32;17.80;42.20
6986;DHT22;3533;51.246;6.850;2023-01-04T00:59:58;17.80;42.20
6986;DHT22;3533;51.246;6.850;2023-01-04T01:02:23;17.80;42.20
6986;DHT22;3533;51.246;6.850;2023-01-04T01:04:49;17.80;42.10
6986;DHT22;3533;51.246;6.850;2023-01-04T01:07:15;17.80;42.10
6986;DHT22;3533;51.246;6.850;2023-01-04T01:09:40;17.80;42.10
6986;DHT22;3533;51.246;6.850;2023-01-04T01:12:06;17.80;42.10
6986;DHT22;3533;51.246;6.850;2023-01-04T01:14:31;17.80;42.20
6986;DHT22;3533;51.246;6.850;2023-01-04T01:16:57;17.80;42.10
6986;DHT22;3533;51.246;6.850;2023-01-04T01:19:24;17.70;42.00
6986;DHT22;3533;51.246;6.850;2023-01-04T01:21:50;17.80;42.10
6986;DHT22;3533;51.246;6.850;2023-01-04T01:24:17;17.80;42.10
6986;DHT22;3533;51.246;6.850;2023-01-04T01:26:44;17.80;42.10
6986;DHT22;3533;51.246;6.850;2023-01-04T01:29:09;17.80;42.10
6986;DHT22;3533;51.246;6.850;2023-01-04T01:31:35;17.80;42.10
6986;DHT22;3533;51.246;6.850;2023-01-04T01:34:01;17.80;42.10
6986;DHT22;3533;51.246;6.850;2023-01-04T01:36:27;17.80;42.10
6986;DHT22;3533;51.246;6.850;2023-01-04T01:38:53;17.80;42.10
6986;DHT22;3533;51.246;6.850;2023-01-04T01:41:25;17.80;42.10
6986;DHT22;3533;51.246;6.850;2023-01-04T01:43:52;17.80;42.00
6986;DHT22;3533;51.246;6.850;2023-01-04T01:49:08;17.80;42.10
6986;DHT22;3533;51.246;6.850;2023-01-04T01:51:37;17.80;42.10
6986;DHT22;3533;51.246;6.850;2023-01-04T01:54:10;17.80;42.10
6986;DHT22;3533;51.246;6.850;2023-01-04T01:56:38;17.80;42.10
6986;DHT22;3533;51.246;6.850;2023-01-04T01:59:06;17.80;42.10
6986;DHT22;3533;51.246;6.850;2023-01-04T02:01:33;17.80;42.00
6986;DHT22;3533;51.246;6.850;2023-01-04T02:03:59;17.80;42.10
6986;DHT22;3533;51.246;6.850;2023-01-04T02:06:30;17.70;41.90
6986;DHT22;3533;51.246;6.850;2023-01-04T02:08:56;17.80;42.10
6986;DHT22;3533;51.246;6.850;2023-01-04T02:11:22;17.70;41.90
6986;DHT22;3533;51.246;6.850;2023-01-04T02:13:48;17.70;41.90
6986;DHT22;3533;51.246;6.850;2023-01-04T02:16:53;17.80;42.00
6986;DHT22;3533;51.246;6.850;2023-01-04T02:19:59;17.70;41.90
6986;DHT22;3533;51.246;6.850;2023-01-04T02:28:05;17.80;42.00
6986;DHT22;3533;51.246;6.850;2023-01-04T02:33:48;17.70;41.90
6986;DHT22;3533;51.246;6.850;2023-01-04T02:37:19;17.70;41.90
6986;DHT22;3533;51.246;6.850;2023-01-04T02:40:00;17.70;41.90
6986;DHT22;3533;51.246;6.850;2023-01-04T02:45:42;17.70;41.90
6986;DHT22;3533;51.246;6.850;2023-01-04T02:48:08;17.70;41.90
6986;DHT22;3533;51.246;6.850;2023-01-04T02:50:55;17.70;41.90
6986;DHT22;3533;51.246;6.850;2023-01-04T02:53:33;17.70;41.90
6986;DHT22;3533;51.246;6.850;2023-01-04T03:08:11;17.70;41.90
6986;DHT22;3533;51.246;6.850;2023-01-04T03:13:20;17.70;41.90
6986;DHT22;3533;51.246;6.850;2023-01-04T03:15:54;17.70;41.90
6986;DHT22;3533;51.246;6.850;2023-01-04T03:18:24;17.70;41.80
6986;DHT22;3533;51.246;6.850;2023-01-04T03:20:53;17.70;41.80
6986;DHT22;3533;51.246;6.850;2023-01-04T03:23:23;17.70;41.80
6986;DHT22;3533;51.246;6.850;2023-01-04T03:26:10;17.70;41.80
6986;DHT22;3533;51.246;6.850;2023-01-04T03:28:59;17.70;41.90
6986;DHT22;3533;51.246;6.850;2023-01-04T03:31:55;17.70;41.90
6986;DHT22;3533;51.246;6.850;2023-01-04T03:34:41;17.70;41.90
6986;DHT22;3533;51.246;6.850;2023-01-04T03:37:35;17.70;41.90
6986;DHT22;3533;51.246;6.850;2023-01-04T03:40:22;17.70;41.80
6986;DHT22;3533;51.246;6.850;2023-01-04T03:43:22;17.70;41.80
6986;DHT22;3533;51.246;6.850;2023-01-04T03:46:32;17.70;41.80
6986;DHT22;3533;51.246;6.850;2023-01-04T03:49:42;17.70;41.90
6986;DHT22;3533;51.246;6.850;2023-01-04T03:52:10;17.70;41.90
6986;DHT22;3533;51.246;6.850;2023-01-04T03:54:39;17.70;41.80
6986;DHT22;3533;51.246;6.850;2023-01-04T03:57:06;17.70;41.80
6986;DHT22;3533;51.246;6.850;2023-01-04T03:59:38;17.70;41.80
6986;DHT22;3533;51.246;6.850;2023-01-04T04:02:05;17.70;41.80
6986;DHT22;3533;51.246;6.850;2023-01-04T04:04:34;17.70;41.80
6986;DHT22;3533;51.246;6.850;2023-01-04T04:07:19;17.70;41.80
6986;DHT22;3533;51.246;6.850;2023-01-04T04:10:03;17.70;41.80
6986;DHT22;3533;51.246;6.850;2023-01-04T04:12:29;17.70;41.70
6986;DHT22;3533;51.246;6.850;2023-01-04T04:14:54;17.70;41.70
6986;DHT22;3533;51.246;6.850;2023-01-04T04:17:20;17.70;41.80
6986;DHT22;3533;51.246;6.850;2023-01-04T04:19:45;17.70;41.80
6986;DHT22;3533;51.246;6.850;2023-01-04T04:22:11;17.70;41.80
6986;DHT22;3533;51.246;6.850;2023-01-04T04:24:36;17.70;41.70
6986;DHT22;3533;51.246;6.850;2023-01-04T04:27:02;17.70;41.80
6986;DHT22;3533;51.246;6.850;2023-01-04T04:29:27;17.70;41.70
6986;DHT22;3533;51.246;6.850;2023-01-04T04:31:53;17.70;41.70
6986;DHT22;3533;51.246;6.850;2023-01-04T04:34:18;17.70;41.70
6986;DHT22;3533;51.246;6.850;2023-01-04T04:36:44;17.70;41.70
6986;DHT22;3533;51.246;6.850;2023-01-04T04:39:10;17.70;41.70
6986;DHT22;3533;51.246;6.850;2023-01-04T04:41:36;17.70;41.70
6986;DHT22;3533;51.246;6.850;2023-01-04T04:46:35;17.70;41.60
6986;DHT22;3533;51.246;6.850;2023-01-04T04:49:02;17.70;41.70
6986;DHT22;3533;51.246;6.850;2023-01-04T04:51:27;17.70;41.70
6986;DHT22;3533;51.246;6.850;2023-01-04T04:53:53;17.70;41.70
6986;DHT22;3533;51.246;6.850;2023-01-04T04:56:18;17.70;41.70
6986;DHT22;3533;51.246;6.850;2023-01-04T04:58:44;17.80;41.70
6986;DHT22;3533;51.246;6.850;2023-01-04T05:01:10;17.80;41.60
6986;DHT22;3533;51.246;6.850;2023-01-04T05:03:35;17.80;41.70
6986;DHT22;3533;51.246;6.850;2023-01-04T05:06:01;17.80;41.60
6986;DHT22;3533;51.246;6.850;2023-01-04T05:08:27;17.80;41.60
6986;DHT22;3533;51.246;6.850;2023-01-04T05:10:53;17.80;41.60
6986;DHT22;3533;51.246;6.850;2023-01-04T05:13:18;17.80;41.60
6986;DHT22;3533;51.246;6.850;2023-01-04T05:15:47;17.80;41.50
6986;DHT22;3533;51.246;6.850;2023-01-04T05:18:14;17.80;41.50
6986;DHT22;3533;51.246;6.850;2023-01-04T05:20:40;17.80;41.50
6986;DHT22;3533;51.246;6.850;2023-01-04T05:23:07;17.80;41.50
6986;DHT22;3533;51.246;6.850;2023-01-04T05:25:33;17.80;41.50
6986;DHT22;3533;51.246;6.850;2023-01-04T05:27:59;17.80;41.50
6986;DHT22;3533;51.246;6.850;2023-01-04T05:30:24;17.80;41.50
6986;DHT22;3533;51.246;6.850;2023-01-04T05:33:09;17.90;41.60
6986;DHT22;3533;51.246;6.850;2023-01-04T05:35:34;17.90;41.50
6986;DHT22;3533;51.246;6.850;2023-01-04T05:38:00;17.90;41.50
6986;DHT22;3533;51.246;6.850;2023-01-04T05:40:26;17.90;41.50
6986;DHT22;3533;51.246;6.850;2023-01-04T05:42:51;17.90;41.50
6986;DHT22;3533;51.246;6.850;2023-01-04T05:45:17;17.90;41.40
6986;DHT22;3533;51.246;6.850;2023-01-04T05:47:47;17.90;41.50
6986;DHT22;3533;51.246;6.850;2023-01-04T05:50:13;17.90;41.40
6986;DHT22;3533;51.246;6.850;2023-01-04T05:52:39;17.90;41.50
6986;DHT22;3533;51.246;6.850;2023-01-04T05:55:04;17.90;41.40
6986;DHT22;3533;51.246;6.850;2023-01-04T05:57:30;17.90;41.40
6986;DHT22;3533;51.246;6.850;2023-01-04T05:59:56;17.90;41.50
6986;DHT22;3533;51.246;6.850;2023-01-04T06:02:24;17.90;41.50
6986;DHT22;3533;51.246;6.850;2023-01-04T06:04:50;17.90;41.40
6986;DHT22;3533;51.246;6.850;2023-01-04T06:07:16;17.90;41.40
6986;DHT22;3533;51.246;6.850;2023-01-04T06:09:42;17.90;41.40
6986;DHT22;3533;51.246;6.850;2023-01-04T06:12:08;17.90;41.40
6986;DHT22;3533;51.246;6.850;2023-01-04T06:14:34;17.90;41.40
6986;DHT22;3533;51.246;6.850;2023-01-04T06:17:00;17.90;41.40
6986;DHT22;3533;51.246;6.850;2023-01-04T06:19:25;17.90;41.40
6986;DHT22;3533;51.246;6.850;2023-01-04T06:21:51;17.90;41.40
6986;DHT22;3533;51.246;6.850;2023-01-04T06:24:17;17.90;41.40
6986;DHT22;3533;51.246;6.850;2023-01-04T06:26:43;17.90;41.40
6986;DHT22;3533;51.246;6.850;2023-01-04T06:29:08;17.90;41.30
6986;DHT22;3533;51.246;6.850;2023-01-04T06:31:34;17.90;41.30
6986;DHT22;3533;51.246;6.850;2023-01-04T06:34:00;17.90;41.40
6986;DHT22;3533;51.246;6.850;2023-01-04T06:36:26;17.90;41.30
6986;DHT22;3533;51.246;6.850;2023-01-04T06:38:51;17.90;41.30
6986;DHT22;3533;51.246;6.850;2023-01-04T06:41:17;17.90;41.30
6986;DHT22;3533;51.246;6.850;2023-01-04T06:43:43;17.90;41.20
6986;DHT22;3533;51.246;6.850;2023-01-04T06:46:08;17.90;41.30
6986;DHT22;3533;51.246;6.850;2023-01-04T06:48:34;17.90;41.20
6986;DHT22;3533;51.246;6.850;2023-01-04T06:50:59;17.90;41.20
6986;DHT22;3533;51.246;6.850;2023-01-04T06:53:25;17.90;41.20
6986;DHT22;3533;51.246;6.850;2023-01-04T06:55:50;17.90;41.20
6986;DHT22;3533;51.246;6.850;2023-01-04T06:58:16;17.90;41.20
6986;DHT22;3533;51.246;6.850;2023-01-04T07:00:42;17.90;41.20
6986;DHT22;3533;51.246;6.850;2023-01-04T07:03:08;17.90;41.10
6986;DHT22;3533;51.246;6.850;2023-01-04T07:05:34;18.00;41.20
6986;DHT22;3533;51.246;6.850;2023-01-04T07:08:00;18.00;41.20
6986;DHT22;3533;51.246;6.850;2023-01-04T07:10:26;18.00;41.20
6986;DHT22;3533;51.246;6.850;2023-01-04T07:12:51;17.90;41.10
6986;DHT22;3533;51.246;6.850;2023-01-04T07:15:17;17.90;41.00
6986;DHT22;3533;51.246;6.850;2023-01-04T07:17:45;18.00;41.10
6986;DHT22;3533;51.246;6.850;2023-01-04T07:20:11;18.00;41.10
6986;DHT22;3533;51.246;6.850;2023-01-04T07:22:36;18.00;41.10
6986;DHT22;3533;51.246;6.850;2023-01-04T07:25:02;18.00;41.10
6986;DHT22;3533;51.246;6.850;2023-01-04T07:27:27;17.90;41.00
6986;DHT22;3533;51.246;6.850;2023-01-04T07:29:53;18.00;41.00
6986;DHT22;3533;51.246;6.850;2023-01-04T07:32:18;18.00;41.00
6986;DHT22;3533;51.246;6.850;2023-01-04T07:34:44;18.00;41.10
6986;DHT22;3533;51.246;6.850;2023-01-04T07:37:09;18.00;41.00
6986;DHT22;3533;51.246;6.850;2023-01-04T07:39:35;18.00;41.00
6986;DHT22;3533;51.246;6.850;2023-01-04T07:42:00;18.00;41.00
6986;DHT22;3533;51.246;6.850;2023-01-04T07:44:26;18.00;41.00
6986;DHT22;3533;51.246;6.850;2023-01-04T07:46:53;18.00;40.90
6986;DHT22;3533;51.246;6.850;2023-01-04T07:49:18;18.00;40.90
6986;DHT22;3533;51.246;6.850;2023-01-04T07:51:45;18.00;40.90
6986;DHT22;3533;51.246;6.850;2023-01-04T07:54:11;18.00;40.90
6986;DHT22;3533;51.246;6.850;2023-01-04T07:56:37;18.00;41.70
6986;DHT22;3533;51.246;6.850;2023-01-04T07:59:07;18.00;40.90
6986;DHT22;3533;51.246;6.850;2023-01-04T08:01:33;18.00;40.90
6986;DHT22;3533;51.246;6.850;2023-01-04T08:04:00;18.00;40.90
6986;DHT22;3533;51.246;6.850;2023-01-04T08:06:25;18.00;40.90
6986;DHT22;3533;51.246;6.850;2023-01-04T08:08:51;18.00;40.90
6986;DHT22;3533;51.246;6.850;2023-01-04T08:11:19;18.00;40.90
6986;DHT22;3533;51.246;6.850;2023-01-04T08:13:47;18.00;40.90
6986;DHT22;3533;51.246;6.850;2023-01-04T08:18:57;18.00;40.90
6986;DHT22;3533;51.246;6.850;2023-01-04T08:21:24;18.00;40.80
6986;DHT22;3533;51.246;6.850;2023-01-04T08:23:50;18.00;40.90
6986;DHT22;3533;51.246;6.850;2023-01-04T08:26:16;18.00;40.80
6986;DHT22;3533;51.246;6.850;2023-01-04T08:28:42;17.90;40.80
6986;DHT22;3533;51.246;6.850;2023-01-04T08:31:11;18.00;40.90
6986;DHT22;3533;51.246;6.850;2023-01-04T08:33:38;18.00;40.90
6986;DHT22;3533;51.246;6.850;2023-01-04T08:36:12;18.00;40.90
6986;DHT22;3533;51.246;6.850;2023-01-04T08:38:41;17.90;40.70
6986;DHT22;3533;51.246;6.850;2023-01-04T08:41:06;18.00;40.80
6986;DHT22;3533;51.246;6.850;2023-01-04T08:43:32;18.00;40.90
6986;DHT22;3533;51.246;6.850;2023-01-04T08:46:00;18.00;40.90
6986;DHT22;3533;51.246;6.850;2023-01-04T08:48:25;17.90;40.70
6986;DHT22;3533;51.246;6.850;2023-01-04T08:50:51;17.90;40.80
6986;DHT22;3533;51.246;6.850;2023-01-04T08:53:16;17.90;40.80
6986;DHT22;3533;51.246;6.850;2023-01-04T08:55:48;18.00;40.90
6986;DHT22;3533;51.246;6.850;2023-01-04T08:58:14;18.00;40.90
6986;DHT22;3533;51.246;6.850;2023-01-04T09:00:39;18.00;40.90
6986;DHT22;3533;51.246;6.850;2023-01-04T09:03:05;18.00;41.00
6986;DHT22;3533;51.246;6.850;2023-01-04T09:05:31;17.90;40.80
6986;DHT22;3533;51.246;6.850;2023-01-04T09:07:58;17.90;40.80
6986;DHT22;3533;51.246;6.850;2023-01-04T09:10:24;18.00;40.90
6986;DHT22;3533;51.246;6.850;2023-01-04T09:12:49;17.90;40.90
6986;DHT22;3533;51.246;6.850;2023-01-04T09:15:15;17.90;40.80
6986;DHT22;3533;51.246;6.850;2023-01-04T09:17:41;17.90;40.80
6986;DHT22;3533;51.246;6.850;2023-01-04T09:20:07;17.90;40.80
6986;DHT22;3533;51.246;6.850;2023-01-04T09:22:33;17.90;40.90
6986;DHT22;3533;51.246;6.850;2023-01-04T09:24:58;17.90;40.90
6986;DHT22;3533;51.246;6.850;2023-01-04T09:27:24;17.90;40.90
6986;DHT22;3533;51.246;6.850;2023-01-04T09:29:50;17.90;40.90
6986;DHT22;3533;51.246;6.850;2023-01-04T09:32:15;17.90;40.90
6986;DHT22;3533;51.246;6.850;2023-01-04T09:34:41;17.90;40.80
6986;DHT22;3533;51.246;6.850;2023-01-04T09:37:07;17.90;40.90
6986;DHT22;3533;51.246;6.850;2023-01-04T09:39:32;17.90;40.80
6986;DHT22;3533;51.246;6.850;2023-01-04T09:41:59;17.90;40.90
6986;DHT22;3533;51.246;6.850;2023-01-04T09:44:40;17.90;40.90
6986;DHT22;3533;51.246;6.850;2023-01-04T09:47:20;17.90;41.00
6986;DHT22;3533;51.246;6.850;2023-01-04T09:49:53;17.90;40.90
6986;DHT22;3533;51.246;6.850;2023-01-04T09:52:50;17.90;40.90
6986;DHT22;3533;51.246;6.850;2023-01-04T09:55:40;17.90;40.90
6986;DHT22;3533;51.246;6.850;2023-01-04T09:58:27;17.90;40.90
6986;DHT22;3533;51.246;6.850;2023-01-04T10:03:36;17.90;41.00
6986;DHT22;3533;51.246;6.850;2023-01-04T10:06:05;17.90;40.90
6986;DHT22;3533;51.246;6.850;2023-01-04T10:08:31;17.90;41.00
6986;DHT22;3533;51.246;6.850;2023-01-04T10:11:18;17.90;41.00
6986;DHT22;3533;51.246;6.850;2023-01-04T10:14:02;17.90;41.00
6986;DHT22;3533;51.246;6.850;2023-01-04T10:17:09;17.90;41.00
6986;DHT22;3533;51.246;6.850;2023-01-04T10:19:48;17.90;41.00
6986;DHT22;3533;51.246;6.850;2023-01-04T10:28:09;17.90;41.10
6986;DHT22;3533;51.246;6.850;2023-01-04T10:33:29;17.90;41.10
6986;DHT22;3533;51.246;6.850;2023-01-04T10:35:58;17.90;41.10
6986;DHT22;3533;51.246;6.850;2023-01-04T10:38:29;17.90;41.10
6986;DHT22;3533;51.246;6.850;2023-01-04T10:41:00;17.90;41.10
6986;DHT22;3533;51.246;6.850;2023-01-04T10:49:38;17.90;41.20
6986;DHT22;3533;51.246;6.850;2023-01-04T10:51:56;17.90;41.10
6986;DHT22;3533;51.246;6.850;2023-01-04T10:54:28;17.90;41.20
6986;DHT22;3533;51.246;6.850;2023-01-04T10:57:03;17.90;41.20
6986;DHT22;3533;51.246;6.850;2023-01-04T10:59:52;17.90;41.10
6986;DHT22;3533;51.246;6.850;2023-01-04T11:05:24;17.90;41.10
6986;DHT22;3533;51.246;6.850;2023-01-04T11:08:15;17.90;41.10
6986;DHT22;3533;51.246;6.850;2023-01-04T11:13:17;17.90;41.20
6986;DHT22;3533;51.246;6.850;2023-01-04T11:15:43;17.90;41.20
6986;DHT22;3533;51.246;6.850;2023-01-04T11:18:10;17.90;41.20
6986;DHT22;3533;51.246;6.850;2023-01-04T11:20:38;17.90;41.20
6986;DHT22;3533;51.246;6.850;2023-01-04T11:23:08;17.90;41.20
6986;DHT22;3533;51.246;6.850;2023-01-04T11:25:46;17.90;41.20
6986;DHT22;3533;51.246;6.850;2023-01-04T11:30:54;17.90;41.20
6986;DHT22;3533;51.246;6.850;2023-01-04T11:33:22;17.90;41.30
6986;DHT22;3533;51.246;6.850;2023-01-04T11:35:55;17.90;41.20
6986;DHT22;3533;51.246;6.850;2023-01-04T11:38:28;17.90;41.20
6986;DHT22;3533;51.246;6.850;2023-01-04T11:43:20;17.90;41.20
6986;DHT22;3533;51.246;6.850;2023-01-04T11:48:35;17.90;41.10
6986;DHT22;3533;51.246;6.850;2023-01-04T11:51:01;17.90;41.20
6986;DHT22;3533;51.246;6.850;2023-01-04T11:53:31;17.90;41.20
6986;DHT22;3533;51.246;6.850;2023-01-04T11:56:13;17.90;41.20
6986;DHT22;3533;51.246;6.850;2023-01-04T11:58:40;17.90;41.20
6986;DHT22;3533;51.246;6.850;2023-01-04T12:01:19;17.90;41.20
6986;DHT22;3533;51.246;6.850;2023-01-04T12:03:45;17.90;41.20
6986;DHT22;3533;51.246;6.850;2023-01-04T12:06:21;17.90;41.30
6986;DHT22;3533;51.246;6.850;2023-01-04T12:08:49;17.90;41.20
6986;DHT22;3533;51.246;6.850;2023-01-04T12:11:33;17.90;41.20
6986;DHT22;3533;51.246;6.850;2023-01-04T12:13:59;17.90;41.30
6986;DHT22;3533;51.246;6.850;2023-01-04T12:16:33;17.90;41.30
6986;DHT22;3533;51.246;6.850;2023-01-04T12:19:03;17.90;41.30
6986;DHT22;3533;51.246;6.850;2023-01-04T12:21:32;17.90;41.30
6986;DHT22;3533;51.246;6.850;2023-01-04T12:23:58;17.90;41.30
6986;DHT22;3533;51.246;6.850;2023-01-04T12:26:24;17.90;41.30
6986;DHT22;3533;51.246;6.850;2023-01-04T12:32:36;17.90;41.30
6986;DHT22;3533;51.246;6.850;2023-01-04T12:34:43;17.90;41.30
6986;DHT22;3533;51.246;6.850;2023-01-04T12:37:42;17.90;41.40
6986;DHT22;3533;51.246;6.850;2023-01-04T12:39:56;17.90;41.30
6986;DHT22;3533;51.246;6.850;2023-01-04T12:42:21;17.90;41.40
6986;DHT22;3533;51.246;6.850;2023-01-04T12:50:14;17.90;41.30
6986;DHT22;3533;51.246;6.850;2023-01-04T12:52:53;17.90;41.30
6986;DHT22;3533;51.246;6.850;2023-01-04T12:59:04;17.90;41.30
6986;DHT22;3533;51.246;6.850;2023-01-04T13:05:44;17.90;41.40
6986;DHT22;3533;51.246;6.850;2023-01-04T13:08:15;17.90;41.40
6986;DHT22;3533;51.246;6.850;2023-01-04T13:10:52;17.90;41.40
6986;DHT22;3533;51.246;6.850;2023-01-04T13:13:35;17.90;41.40
6986;DHT22;3533;51.246;6.850;2023-01-04T13:18:32;17.90;41.40
6986;DHT22;3533;51.246;6.850;2023-01-04T13:21:09;17.90;41.40
6986;DHT22;3533;51.246;6.850;2023-01-04T13:23:36;17.90;41.40
6986;DHT22;3533;51.246;6.850;2023-01-04T13:31:57;17.90;41.40
6986;DHT22;3533;51.246;6.850;2023-01-04T13:34:33;17.90;41.40
6986;DHT22;3533;51.246;6.850;2023-01-04T13:39:47;17.90;41.40
6986;DHT22;3533;51.246;6.850;2023-01-04T13:42:22;17.90;41.40
6986;DHT22;3533;51.246;6.850;2023-01-04T13:47:42;17.90;41.40
6986;DHT22;3533;51.246;6.850;2023-01-04T13:50:28;17.90;41.40
6986;DHT22;3533;51.246;6.850;2023-01-04T13:52:53;17.90;41.40
6986;DHT22;3533;51.246;6.850;2023-01-04T13:55:22;17.90;41.50
6986;DHT22;3533;51.246;6.850;2023-01-04T13:57:58;17.90;41.50
6986;DHT22;3533;51.246;6.850;2023-01-04T14:00:41;17.90;41.50
6986;DHT22;3533;51.246;6.850;2023-01-04T14:03:32;17.90;41.50
6986;DHT22;3533;51.246;6.850;2023-01-04T14:08:57;17.90;41.50
6986;DHT22;3533;51.246;6.850;2023-01-04T14:14:38;17.90;41.60
6986;DHT22;3533;51.246;6.850;2023-01-04T14:17:15;17.90;41.50
6986;DHT22;3533;51.246;6.850;2023-01-04T14:19:54;17.90;41.50
6986;DHT22;3533;51.246;6.850;2023-01-04T14:24:46;17.90;41.50
6986;DHT22;3533;51.246;6.850;2023-01-04T14:27:31;17.80;41.50
6986;DHT22;3533;51.246;6.850;2023-01-04T14:29:57;17.90;41.50
6986;DHT22;3533;51.246;6.850;2023-01-04T14:32:23;17.90;41.60
6986;DHT22;3533;51.246;6.850;2023-01-04T14:34:50;17.90;41.50
6986;DHT22;3533;51.246;6.850;2023-01-04T14:37:15;17.90;41.50
6986;DHT22;3533;51.246;6.850;2023-01-04T14:39:41;17.90;41.50
6986;DHT22;3533;51.246;6.850;2023-01-04T14:42:23;17.90;41.60
6986;DHT22;3533;51.246;6.850;2023-01-04T14:44:49;17.90;41.50
6986;DHT22;3533;51.246;6.850;2023-01-04T14:47:15;17.90;41.60
6986;DHT22;3533;51.246;6.850;2023-01-04T14:49:40;17.90;41.60
6986;DHT22;3533;51.246;6.850;2023-01-04T14:52:17;17.90;41.50
6986;DHT22;3533;51.246;6.850;2023-01-04T14:54:44;17.90;41.60
6986;DHT22;3533;51.246;6.850;2023-01-04T14:57:10;17.90;41.60
6986;DHT22;3533;51.246;6.850;2023-01-04T14:59:35;17.90;41.60
6986;DHT22;3533;51.246;6.850;2023-01-04T15:02:01;17.90;41.60
6986;DHT22;3533;51.246;6.850;2023-01-04T15:04:27;17.90;41.60
6986;DHT22;3533;51.246;6.850;2023-01-04T15:06:59;17.90;41.60
6986;DHT22;3533;51.246;6.850;2023-01-04T15:09:26;17.90;41.60
6986;DHT22;3533;51.246;6.850;2023-01-04T15:11:51;17.90;41.60
6986;DHT22;3533;51.246;6.850;2023-01-04T15:14:17;17.90;41.60
6986;DHT22;3533;51.246;6.850;2023-01-04T15:16:42;17.90;41.60
6986;DHT22;3533;51.246;6.850;2023-01-04T15:19:08;17.90;41.60
6986;DHT22;3533;51.246;6.850;2023-01-04T15:21:33;17.90;41.60
6986;DHT22;3533;51.246;6.850;2023-01-04T15:23:59;17.90;41.60
6986;DHT22;3533;51.246;6.850;2023-01-04T15:26:24;17.90;41.60
6986;DHT22;3533;51.246;6.850;2023-01-04T15:28:50;17.90;41.60
6986;DHT22;3533;51.246;6.850;2023-01-04T15:31:16;17.90;41.60
6986;DHT22;3533;51.246;6.850;2023-01-04T15:33:41;17.90;41.60
6986;DHT22;3533;51.246;6.850;2023-01-04T15:36:11;17.90;41.60
6986;DHT22;3533;51.246;6.850;2023-01-04T15:38:37;17.90;41.70
6986;DHT22;3533;51.246;6.850;2023-01-04T15:41:09;17.90;41.60
6986;DHT22;3533;51.246;6.850;2023-01-04T15:43:36;17.90;41.60
6986;DHT22;3533;51.246;6.850;2023-01-04T15:46:04;17.90;41.60
6986;DHT22;3533;51.246;6.850;2023-01-04T15:48:32;17.90;41.60
6986;DHT22;3533;51.246;6.850;2023-01-04T15:51:04;17.90;41.60
6986;DHT22;3533;51.246;6.850;2023-01-04T15:53:32;17.90;41.60
6986;DHT22;3533;51.246;6.850;2023-01-04T15:56:09;17.90;41.60
6986;DHT22;3533;51.246;6.850;2023-01-04T15:58:35;17.90;41.60
6986;DHT22;3533;51.246;6.850;2023-01-04T16:01:12;17.90;41.60
6986;DHT22;3533;51.246;6.850;2023-01-04T16:03:38;17.90;41.60
6986;DHT22;3533;51.246;6.850;2023-01-04T16:06:08;17.90;41.60
6986;DHT22;3533;51.246;6.850;2023-01-04T16:08:34;17.90;41.60
6986;DHT22;3533;51.246;6.850;2023-01-04T16:13:42;17.90;41.60
6986;DHT22;3533;51.246;6.850;2023-01-04T16:16:08;17.90;41.60
6986;DHT22;3533;51.246;6.850;2023-01-04T16:18:34;17.90;41.60
6986;DHT22;3533;51.246;6.850;2023-01-04T16:21:03;17.90;41.60
6986;DHT22;3533;51.246;6.850;2023-01-04T16:23:28;17.90;41.60
6986;DHT22;3533;51.246;6.850;2023-01-04T16:26:23;17.90;41.60
6986;DHT22;3533;51.246;6.850;2023-01-04T16:28:53;17.90;41.50
6986;DHT22;3533;51.246;6.850;2023-01-04T16:31:21;17.90;41.50
6986;DHT22;3533;51.246;6.850;2023-01-04T16:33:50;17.90;41.50
6986;DHT22;3533;51.246;6.850;2023-01-04T16:36:16;17.90;41.50
6986;DHT22;3533;51.246;6.850;2023-01-04T16:38:44;17.90;41.50
6986;DHT22;3533;51.246;6.850;2023-01-04T16:41:12;17.90;41.50
6986;DHT22;3533;51.246;6.850;2023-01-04T16:43:49;18.00;41.60
6986;DHT22;3533;51.246;6.850;2023-01-04T16:48:42;18.00;41.60
6986;DHT22;3533;51.246;6.850;2023-01-04T16:51:08;18.00;41.60
6986;DHT22;3533;51.246;6.850;2023-01-04T16:53:34;18.00;41.60
6986;DHT22;3533;51.246;6.850;2023-01-04T16:56:11;18.00;41.50
6986;DHT22;3533;51.246;6.850;2023-01-04T16:58:36;18.00;41.60
6986;DHT22;3533;51.246;6.850;2023-01-04T17:01:11;18.00;41.50
6986;DHT22;3533;51.246;6.850;2023-01-04T17:03:37;18.00;41.50
6986;DHT22;3533;51.246;6.850;2023-01-04T17:06:18;18.00;41.60
6986;DHT22;3533;51.246;6.850;2023-01-04T17:08:45;18.00;41.50
6986;DHT22;3533;51.246;6.850;2023-01-04T17:11:16;18.00;41.50
6986;DHT22;3533;51.246;6.850;2023-01-04T17:13:43;18.00;41.50
6986;DHT22;3533;51.246;6.850;2023-01-04T17:16:10;18.00;41.50
6986;DHT22;3533;51.246;6.850;2023-01-04T17:18:36;18.00;41.50
6986;DHT22;3533;51.246;6.850;2023-01-04T17:21:05;18.00;41.50
6986;DHT22;3533;51.246;6.850;2023-01-04T17:23:34;18.00;41.50
6986;DHT22;3533;51.246;6.850;2023-01-04T17:26:05;18.00;41.50
6986;DHT22;3533;51.246;6.850;2023-01-04T17:28:31;18.00;41.50
6986;DHT22;3533;51.246;6.850;2023-01-04T17:30:57;18.00;41.50
6986;DHT22;3533;51.246;6.850;2023-01-04T17:33:23;18.00;41.50
6986;DHT22;3533;51.246;6.850;2023-01-04T17:35:48;18.00;41.50
6986;DHT22;3533;51.246;6.850;2023-01-04T17:38:15;18.00;41.40
6986;DHT22;3533;51.246;6.850;2023-01-04T17:40:40;18.00;41.40
6986;DHT22;3533;51.246;6.850;2023-01-04T17:43:07;18.00;41.40
6986;DHT22;3533;51.246;6.850;2023-01-04T17:45:33;18.00;41.40
6986;DHT22;3533;51.246;6.850;2023-01-04T17:47:59;18.00;41.40
6986;DHT22;3533;51.246;6.850;2023-01-04T17:50:24;18.00;41.40
6986;DHT22;3533;51.246;6.850;2023-01-04T17:52:50;18.00;41.40
6986;DHT22;3533;51.246;6.850;2023-01-04T17:55:16;18.00;41.50
6986;DHT22;3533;51.246;6.850;2023-01-04T17:57:42;18.00;41.40
6986;DHT22;3533;51.246;6.850;2023-01-04T18:00:09;18.00;41.30
6986;DHT22;3533;51.246;6.850;2023-01-04T18:02:34;18.00;41.30
6986;DHT22;3533;51.246;6.850;2023-01-04T18:05:03;18.00;41.40
6986;DHT22;3533;51.246;6.850;2023-01-04T18:07:32;18.00;41.30